sensor_id;sensor_type;location;lat;lon;timestamp;pressure;altitude;pressure_sealevel;temperature;humidity
1472;BME280;963;42.644;23.336;2023-04-20T00:00:46;93819.78;;;12.72;56.71
1472;BME280;963;42.644;23.336;2023-04-20T00:03:12;93800.19;;;12.51;56.73
1472;BME280;963;42.644;23.336;2023-04-20T00:05:37;93811.50;;;12.66;56.80
1472;BME280;963;42.644;23.336;2023-04-20T00:08:03;93808.84;;;12.48;56.75
1472;BME280;963;42.644;23.336;2023-04-20T00:10:29;93818.28;;;12.64;56.57
1472;BME280;963;42.644;23.336;2023-04-20T00:12:54;93804.31;;;12.63;56.80
1472;BME280;963;42.644;23.336;2023-04-20T00:15:19;93797.16;;;12.60;56.67
1472;BME280;963;42.644;23.336;2023-04-20T00:17:45;93800.19;;;12.66;56.78
1472;BME280;963;42.644;23.336;2023-04-20T00:20:13;93804.34;;;12.70;56.64
1472;BME280;963;42.644;23.336;2023-04-20T00:22:39;93813.38;;;12.69;56.77
1472;BME280;963;42.644;23.336;2023-04-20T00:25:05;93810.00;;;12.65;57.21
1472;BME280;963;42.644;23.336;2023-04-20T00:27:31;93840.16;;;12.64;57.01
1472;BME280;963;42.644;23.336;2023-04-20T00:29:56;93792.25;;;12.62;57.22
1472;BME280;963;42.644;23.336;2023-04-20T00:32:22;93800.19;;;12.48;57.74
1472;BME280;963;42.644;23.336;2023-04-20T00:34:47;93796.78;;;12.58;57.30
1472;BME280;963;42.644;23.336;2023-04-20T00:37:12;93780.56;;;12.56;57.49
1472;BME280;963;42.644;23.336;2023-04-20T00:39:38;93777.56;;;12.50;57.32
1472;BME280;963;42.644;23.336;2023-04-20T00:42:06;93788.88;;;12.47;57.48
1472;BME280;963;42.644;23.336;2023-04-20T00:44:32;93802.06;;;12.44;57.63
1472;BME280;963;42.644;23.336;2023-04-20T00:46:59;93793.00;;;12.52;57.10
1472;BME280;963;42.644;23.336;2023-04-20T00:49:29;93784.34;;;12.62;56.99
1472;BME280;963;42.644;23.336;2023-04-20T00:51:58;93788.13;;;12.50;57.18
1472;BME280;963;42.644;23.336;2023-04-20T00:54:25;93786.97;;;12.55;57.38
1472;BME280;963;42.644;23.336;2023-04-20T00:56:51;93783.22;;;12.49;57.56
1472;BME280;963;42.644;23.336;2023-04-20T00:59:17;93788.50;;;12.49;57.91
1472;BME280;963;42.644;23.336;2023-04-20T01:01:43;93780.56;;;12.56;58.06
1472;BME280;963;42.644;23.336;2023-04-20T01:04:08;93793.38;;;12.54;59.09
1472;BME280;963;42.644;23.336;2023-04-20T01:06:34;93787.38;;;12.50;58.77
1472;BME280;963;42.644;23.336;2023-04-20T01:08:59;93777.56;;;12.40;59.18
1472;BME280;963;42.644;23.336;2023-04-20T01:11:25;93784.34;;;12.37;59.05
1472;BME280;963;42.644;23.336;2023-04-20T01:13:51;93787.00;;;12.41;59.14
1472;BME280;963;42.644;23.336;2023-04-20T01:16:16;93794.09;;;12.15;60.41
1472;BME280;963;42.644;23.336;2023-04-20T01:18:47;93797.88;;;12.25;60.26
1472;BME280;963;42.644;23.336;2023-04-20T01:21:13;93787.34;;;12.21;60.22
1472;BME280;963;42.644;23.336;2023-04-20T01:23:39;93799.75;;;12.21;60.41
1472;BME280;963;42.644;23.336;2023-04-20T01:26:09;93781.31;;;12.17;60.35
1472;BME280;963;42.644;23.336;2023-04-20T01:28:35;93783.94;;;12.17;60.34
1472;BME280;963;42.644;23.336;2023-04-20T01:31:02;93794.09;;;12.08;60.83
1472;BME280;963;42.644;23.336;2023-04-20T01:33:28;93795.59;;;12.02;61.24
1472;BME280;963;42.644;23.336;2023-04-20T01:35:53;93810.66;;;12.05;61.50
1472;BME280;963;42.644;23.336;2023-04-20T01:38:19;93784.69;;;12.00;61.23
1472;BME280;963;42.644;23.336;2023-04-20T01:40:45;93787.31;;;12.07;61.31
1472;BME280;963;42.644;23.336;2023-04-20T01:43:11;93807.28;;;12.01;61.58
1472;BME280;963;42.644;23.336;2023-04-20T01:45:37;93791.09;;;12.06;61.44
1472;BME280;963;42.644;23.336;2023-04-20T01:48:02;93794.84;;;12.05;61.55
1472;BME280;963;42.644;23.336;2023-04-20T01:50:28;93775.63;;;11.94;61.65
1472;BME280;963;42.644;23.336;2023-04-20T01:52:53;93785.81;;;12.06;61.68
1472;BME280;963;42.644;23.336;2023-04-20T01:55:19;93776.78;;;12.07;61.16
1472;BME280;963;42.644;23.336;2023-04-20T01:57:44;93789.94;;;12.04;61.55
1472;BME280;963;42.644;23.336;2023-04-20T02:00:11;93774.50;;;12.02;61.86
1472;BME280;963;42.644;23.336;2023-04-20T02:02:37;93791.06;;;11.99;61.97
1472;BME280;963;42.644;23.336;2023-04-20T02:05:03;93780.53;;;11.99;62.17
1472;BME280;963;42.644;23.336;2023-04-20T02:07:29;93763.19;;;11.91;62.06
1472;BME280;963;42.644;23.336;2023-04-20T02:09:55;93776.00;;;11.96;62.16
1472;BME280;963;42.644;23.336;2023-04-20T02:12:20;93783.53;;;11.94;62.04
1472;BME280;963;42.644;23.336;2023-04-20T02:14:45;93765.78;;;11.84;62.45
1472;BME280;963;42.644;23.336;2023-04-20T02:17:11;93770.69;;;11.89;62.51
1472;BME280;963;42.644;23.336;2023-04-20T02:19:36;93768.06;;;11.89;61.91
1472;BME280;963;42.644;23.336;2023-04-20T02:22:02;93762.44;;;11.94;61.65
1472;BME280;963;42.644;23.336;2023-04-20T02:24:27;93768.81;;;11.86;61.64
1472;BME280;963;42.644;23.336;2023-04-20T02:26:53;93766.97;;;11.94;61.74
1472;BME280;963;42.644;23.336;2023-04-20T02:29:18;93778.22;;;11.83;61.63
1472;BME280;963;42.644;23.336;2023-04-20T02:31:43;93766.97;;;11.94;61.12
1472;BME280;963;42.644;23.336;2023-04-20T02:34:09;93774.50;;;11.95;61.28
1472;BME280;963;42.644;23.336;2023-04-20T02:36:35;93757.19;;;11.91;61.27
1472;BME280;963;42.644;23.336;2023-04-20T02:39:01;93767.72;;;11.98;61.23
1472;BME280;963;42.644;23.336;2023-04-20T02:41:27;93774.88;;;11.97;61.47
1472;BME280;963;42.644;23.336;2023-04-20T02:43:52;93775.63;;;11.91;61.29
1472;BME280;963;42.644;23.336;2023-04-20T02:46:19;93778.66;;;11.96;61.34
1472;BME280;963;42.644;23.336;2023-04-20T02:48:45;93763.19;;;11.91;61.15
1472;BME280;963;42.644;23.336;2023-04-20T02:51:10;93779.75;;;11.92;60.57
1472;BME280;963;42.644;23.336;2023-04-20T02:53:36;93788.81;;;11.94;60.01
1472;BME280;963;42.644;23.336;2023-04-20T02:56:01;93787.97;;;11.76;60.73
1472;BME280;963;42.644;23.336;2023-04-20T02:58:27;93789.56;;;11.91;60.46
1472;BME280;963;42.644;23.336;2023-04-20T03:00:58;93765.78;;;11.84;60.78
1472;BME280;963;42.644;23.336;2023-04-20T03:03:24;93778.22;;;11.87;61.48
1472;BME280;963;42.644;23.336;2023-04-20T03:05:50;93771.44;;;11.86;62.38
1472;BME280;963;42.644;23.336;2023-04-20T03:08:15;93774.84;;;11.86;62.05
1472;BME280;963;42.644;23.336;2023-04-20T03:10:41;93772.94;;;11.87;61.59
1472;BME280;963;42.644;23.336;2023-04-20T03:13:06;93775.91;;;11.71;61.97
1472;BME280;963;42.644;23.336;2023-04-20T03:15:31;93765.03;;;11.80;61.84
1472;BME280;963;42.644;23.336;2023-04-20T03:17:57;93778.97;;;11.80;61.89
1472;BME280;963;42.644;23.336;2023-04-20T03:20:22;93794.41;;;11.82;61.73
1472;BME280;963;42.644;23.336;2023-04-20T03:22:48;93771.81;;;11.84;61.54
1472;BME280;963;42.644;23.336;2023-04-20T03:25:13;93780.84;;;11.83;61.43
1472;BME280;963;42.644;23.336;2023-04-20T03:27:39;93778.97;;;11.80;61.81
1472;BME280;963;42.644;23.336;2023-04-20T03:30:05;93753.69;;;11.69;61.83
1472;BME280;963;42.644;23.336;2023-04-20T03:32:31;93774.81;;;11.83;61.83
1472;BME280;963;42.644;23.336;2023-04-20T03:34:56;93757.09;;;11.73;61.79
1472;BME280;963;42.644;23.336;2023-04-20T03:37:21;93761.59;;;11.76;61.85
1472;BME280;963;42.644;23.336;2023-04-20T03:39:47;93774.78;;;11.76;62.25
1472;BME280;963;42.644;23.336;2023-04-20T03:42:12;93783.88;;;11.85;62.37
1472;BME280;963;42.644;23.336;2023-04-20T03:44:38;93783.50;;;11.87;62.18
1472;BME280;963;42.644;23.336;2023-04-20T03:47:03;93775.97;;;11.89;62.27
1472;BME280;963;42.644;23.336;2023-04-20T03:49:29;93775.97;;;11.85;61.78
1472;BME280;963;42.644;23.336;2023-04-20T03:51:54;93779.72;;;11.88;61.46
1472;BME280;963;42.644;23.336;2023-04-20T03:54:19;93769.19;;;11.84;61.70
1472;BME280;963;42.644;23.336;2023-04-20T03:56:45;93774.47;;;11.88;61.38
1472;BME280;963;42.644;23.336;2023-04-20T03:59:10;93782.75;;;11.86;61.56
1472;BME280;963;42.644;23.336;2023-04-20T04:01:36;93787.66;;;11.92;60.96
1472;BME280;963;42.644;23.336;2023-04-20T04:04:03;93765.41;;;11.82;60.82
1472;BME280;963;42.644;23.336;2023-04-20T04:06:29;93783.16;;;11.99;60.88
1472;BME280;963;42.644;23.336;2023-04-20T04:08:54;93774.88;;;11.94;60.38
1472;BME280;963;42.644;23.336;2023-04-20T04:11:19;93768.84;;;11.93;60.21
1472;BME280;963;42.644;23.336;2023-04-20T04:13:45;93790.28;;;11.88;60.25
1472;BME280;963;42.644;23.336;2023-04-20T04:16:10;93785.78;;;11.92;60.20
1472;BME280;963;42.644;23.336;2023-04-20T04:18:36;93789.56;;;11.91;60.55
1472;BME280;963;42.644;23.336;2023-04-20T04:21:02;93810.66;;;12.02;60.30
1472;BME280;963;42.644;23.336;2023-04-20T04:23:27;93783.88;;;11.89;60.27
1472;BME280;963;42.644;23.336;2023-04-20T04:25:53;93802.75;;;11.98;60.26
1472;BME280;963;42.644;23.336;2023-04-20T04:28:18;93812.91;;;12.00;60.67
1472;BME280;963;42.644;23.336;2023-04-20T04:30:45;93796.28;;;11.78;60.85
1472;BME280;963;42.644;23.336;2023-04-20T04:33:11;93802.38;;;11.96;60.99
1472;BME280;963;42.644;23.336;2023-04-20T04:35:38;93784.59;;;11.79;60.50
1472;BME280;963;42.644;23.336;2023-04-20T04:38:05;93805.38;;;12.05;60.35
1472;BME280;963;42.644;23.336;2023-04-20T04:40:31;93795.59;;;11.95;60.68
1472;BME280;963;42.644;23.336;2023-04-20T04:42:57;93802.75;;;12.02;60.62
1472;BME280;963;42.644;23.336;2023-04-20T04:45:24;93817.06;;;12.08;60.44
1472;BME280;963;42.644;23.336;2023-04-20T04:47:50;93805.38;;;12.05;60.62
1472;BME280;963;42.644;23.336;2023-04-20T04:50:18;93802.38;;;12.00;60.63
1472;BME280;963;42.644;23.336;2023-04-20T04:52:44;93809.16;;;12.04;60.59
1472;BME280;963;42.644;23.336;2023-04-20T04:55:10;93813.31;;;12.09;60.54
1472;BME280;963;42.644;23.336;2023-04-20T04:57:35;93822.72;;;12.17;60.13
1472;BME280;963;42.644;23.336;2023-04-20T05:00:03;93821.97;;;12.20;60.35
1472;BME280;963;42.644;23.336;2023-04-20T05:02:34;93827.25;;;12.13;60.67
1472;BME280;963;42.644;23.336;2023-04-20T05:04:59;93828.00;;;12.13;60.70
1472;BME280;963;42.644;23.336;2023-04-20T05:07:25;93815.94;;;12.02;61.36
1472;BME280;963;42.644;23.336;2023-04-20T05:09:51;93812.16;;;11.99;60.86
1472;BME280;963;42.644;23.336;2023-04-20T05:12:16;93816.72;;;12.16;60.65
1472;BME280;963;42.644;23.336;2023-04-20T05:14:42;93812.19;;;12.13;60.50
1472;BME280;963;42.644;23.336;2023-04-20T05:17:08;93808.41;;;12.07;60.65
1472;BME280;963;42.644;23.336;2023-04-20T05:19:33;93807.66;;;12.03;60.62
1472;BME280;963;42.644;23.336;2023-04-20T05:21:58;93829.50;;;12.18;60.67
1472;BME280;963;42.644;23.336;2023-04-20T05:24:24;93842.31;;;12.12;60.60
1472;BME280;963;42.644;23.336;2023-04-20T05:26:49;93804.28;;;12.13;60.25
1472;BME280;963;42.644;23.336;2023-04-20T05:29:15;93823.50;;;12.25;60.63
1472;BME280;963;42.644;23.336;2023-04-20T05:31:40;93830.28;;;12.26;60.72
1472;BME280;963;42.644;23.336;2023-04-20T05:34:06;93815.97;;;12.23;60.55
1472;BME280;963;42.644;23.336;2023-04-20T05:36:31;93815.22;;;12.26;60.28
1472;BME280;963;42.644;23.336;2023-04-20T05:38:57;93822.72;;;12.13;60.93
1472;BME280;963;42.644;23.336;2023-04-20T05:41:23;93825.75;;;12.23;61.14
1472;BME280;963;42.644;23.336;2023-04-20T05:43:52;93823.50;;;12.25;60.56
1472;BME280;963;42.644;23.336;2023-04-20T05:46:17;93817.09;;;12.26;60.98
1472;BME280;963;42.644;23.336;2023-04-20T05:48:43;93822.72;;;12.13;61.32
1472;BME280;963;42.644;23.336;2023-04-20T05:51:08;93837.03;;;12.16;61.50
1472;BME280;963;42.644;23.336;2023-04-20T05:53:33;93824.22;;;12.11;61.47
1472;BME280;963;42.644;23.336;2023-04-20T05:55:59;93822.72;;;12.10;61.95
1472;BME280;963;42.644;23.336;2023-04-20T05:58:24;93831.00;;;12.15;61.64
1472;BME280;963;42.644;23.336;2023-04-20T06:00:51;93830.28;;;12.22;61.50
1472;BME280;963;42.644;23.336;2023-04-20T06:03:16;93831.03;;;12.23;61.53
1472;BME280;963;42.644;23.336;2023-04-20T06:05:42;93808.03;;;12.19;61.25
1472;BME280;963;42.644;23.336;2023-04-20T06:08:07;93822.78;;;12.28;61.52
1472;BME280;963;42.644;23.336;2023-04-20T06:10:33;93831.03;;;12.26;61.89
1472;BME280;963;42.644;23.336;2023-04-20T06:12:58;93844.25;;;12.33;61.70
1472;BME280;963;42.644;23.336;2023-04-20T06:15:24;93840.44;;;12.20;62.21
1472;BME280;963;42.644;23.336;2023-04-20T06:17:49;93823.09;;;12.12;62.52
1472;BME280;963;42.644;23.336;2023-04-20T06:20:15;93838.19;;;12.22;62.86
1472;BME280;963;42.644;23.336;2023-04-20T06:22:43;93823.50;;;12.17;63.10
1472;BME280;963;42.644;23.336;2023-04-20T06:25:10;93856.63;;;12.15;63.79
1472;BME280;963;42.644;23.336;2023-04-20T06:27:35;93835.94;;;12.24;63.38
1472;BME280;963;42.644;23.336;2023-04-20T06:30:01;93825.38;;;12.24;63.19
1472;BME280;963;42.644;23.336;2023-04-20T06:32:26;93845.38;;;12.36;63.47
1472;BME280;963;42.644;23.336;2023-04-20T06:34:52;93828.06;;;12.28;63.13
1472;BME280;963;42.644;23.336;2023-04-20T06:37:17;93829.53;;;12.25;62.92
1472;BME280;963;42.644;23.336;2023-04-20T06:39:43;93836.31;;;12.26;62.54
1472;BME280;963;42.644;23.336;2023-04-20T06:42:09;93840.13;;;12.36;62.63
1472;BME280;963;42.644;23.336;2023-04-20T06:44:34;93834.84;;;12.32;62.61
1472;BME280;963;42.644;23.336;2023-04-20T06:46:59;93839.75;;;12.44;62.58
1472;BME280;963;42.644;23.336;2023-04-20T06:49:25;93849.16;;;12.45;62.60
1472;BME280;963;42.644;23.336;2023-04-20T06:51:50;93862.34;;;12.45;62.80
1472;BME280;963;42.644;23.336;2023-04-20T06:54:16;93849.91;;;12.46;62.58
1472;BME280;963;42.644;23.336;2023-04-20T06:56:41;93855.19;;;12.46;62.24
1472;BME280;963;42.644;23.336;2023-04-20T06:59:07;93856.69;;;12.40;61.78
1472;BME280;963;42.644;23.336;2023-04-20T07:01:32;93857.47;;;12.51;62.16
1472;BME280;963;42.644;23.336;2023-04-20T07:03:57;93872.53;;;12.54;62.00
1472;BME280;963;42.644;23.336;2023-04-20T07:06:23;93856.69;;;12.43;62.72
1472;BME280;963;42.644;23.336;2023-04-20T07:08:49;93874.78;;;12.45;63.71
1472;BME280;963;42.644;23.336;2023-04-20T07:11:15;93875.53;;;12.49;64.49
1472;BME280;963;42.644;23.336;2023-04-20T07:13:40;93867.25;;;12.47;63.92
1472;BME280;963;42.644;23.336;2023-04-20T07:16:06;93885.72;;;12.58;63.45
1472;BME280;963;42.644;23.336;2023-04-20T07:18:32;93872.53;;;12.54;63.88
1472;BME280;963;42.644;23.336;2023-04-20T07:20:58;93875.56;;;12.56;63.63
1472;BME280;963;42.644;23.336;2023-04-20T07:23:23;93879.69;;;12.57;63.47
1472;BME280;963;42.644;23.336;2023-04-20T07:25:48;93865.00;;;12.56;63.42
1472;BME280;963;42.644;23.336;2023-04-20T07:28:14;93859.38;;;12.72;63.65
1472;BME280;963;42.644;23.336;2023-04-20T07:30:39;93849.19;;;12.70;62.96
1472;BME280;963;42.644;23.336;2023-04-20T07:33:05;93872.56;;;12.72;61.93
1472;BME280;963;42.644;23.336;2023-04-20T07:35:31;93863.91;;;12.78;61.69
1472;BME280;963;42.644;23.336;2023-04-20T07:37:56;93858.25;;;12.83;61.95
1472;BME280;963;42.644;23.336;2023-04-20T07:40:22;93868.03;;;12.94;61.27
1472;BME280;963;42.644;23.336;2023-04-20T07:42:47;93842.78;;;12.93;61.57
1472;BME280;963;42.644;23.336;2023-04-20T07:45:13;93856.72;;;12.97;60.79
1472;BME280;963;42.644;23.336;2023-04-20T07:47:38;93869.56;;;13.05;60.26
1472;BME280;963;42.644;23.336;2023-04-20T07:50:05;93852.97;;;13.19;60.25
1472;BME280;963;42.644;23.336;2023-04-20T07:52:31;93843.16;;;13.20;60.11
1472;BME280;963;42.644;23.336;2023-04-20T07:54:57;93857.84;;;13.28;59.73
1472;BME280;963;42.644;23.336;2023-04-20T07:57:24;93843.13;;;13.16;59.68
1472;BME280;963;42.644;23.336;2023-04-20T07:59:49;93850.31;;;13.40;58.87
1472;BME280;963;42.644;23.336;2023-04-20T08:02:15;93846.13;;;13.54;58.61
1472;BME280;963;42.644;23.336;2023-04-20T08:04:41;93829.91;;;13.48;58.00
1472;BME280;963;42.644;23.336;2023-04-20T08:07:09;93847.28;;;13.31;58.54
1472;BME280;963;42.644;23.336;2023-04-20T08:09:35;93854.44;;;13.49;58.42
1472;BME280;963;42.644;23.336;2023-04-20T08:12:00;93864.28;;;13.30;58.94
1472;BME280;963;42.644;23.336;2023-04-20T08:14:26;93847.25;;;13.49;58.59
1472;BME280;963;42.644;23.336;2023-04-20T08:16:51;93860.13;;;13.43;58.67
1472;BME280;963;42.644;23.336;2023-04-20T08:19:17;93846.88;;;13.51;58.34
1472;BME280;963;42.644;23.336;2023-04-20T08:21:42;93852.16;;;13.51;59.15
1472;BME280;963;42.644;23.336;2023-04-20T08:24:08;93855.84;;;13.74;58.17
1472;BME280;963;42.644;23.336;2023-04-20T08:26:34;93855.88;;;13.78;57.96
1472;BME280;963;42.644;23.336;2023-04-20T08:29:00;93861.88;;;13.82;57.73
1472;BME280;963;42.644;23.336;2023-04-20T08:31:26;93857.75;;;13.81;57.91
1472;BME280;963;42.644;23.336;2023-04-20T08:33:52;93856.69;;;13.54;58.63
1472;BME280;963;42.644;23.336;2023-04-20T08:36:17;93855.88;;;13.71;58.66
1472;BME280;963;42.644;23.336;2023-04-20T08:38:43;93862.66;;;13.79;57.73
1472;BME280;963;42.644;23.336;2023-04-20T08:41:09;93877.75;;;13.82;58.42
1472;BME280;963;42.644;23.336;2023-04-20T08:43:37;93852.06;;;13.86;57.73
1472;BME280;963;42.644;23.336;2023-04-20T08:46:03;93859.19;;;13.96;57.29
1472;BME280;963;42.644;23.336;2023-04-20T08:48:34;93847.47;;;13.97;57.44
1472;BME280;963;42.644;23.336;2023-04-20T08:51:01;93849.28;;;14.15;57.01
1472;BME280;963;42.644;23.336;2023-04-20T08:53:27;93854.91;;;14.24;56.99
1472;BME280;963;42.644;23.336;2023-04-20T08:55:52;93851.84;;;14.29;56.55
1472;BME280;963;42.644;23.336;2023-04-20T08:58:23;93850.31;;;14.35;56.60
1472;BME280;963;42.644;23.336;2023-04-20T09:00:49;93861.75;;;14.18;57.27
1472;BME280;963;42.644;23.336;2023-04-20T09:03:14;93857.97;;;14.19;56.79
1472;BME280;963;42.644;23.336;2023-04-20T09:05:40;93853.47;;;14.05;56.74
1472;BME280;963;42.644;23.336;2023-04-20T09:08:05;93850.44;;;14.14;57.39
1472;BME280;963;42.644;23.336;2023-04-20T09:10:41;93870.78;;;14.24;57.76
1472;BME280;963;42.644;23.336;2023-04-20T09:13:07;93842.91;;;14.05;57.11
1472;BME280;963;42.644;23.336;2023-04-20T09:15:33;93874.97;;;14.18;57.22
1472;BME280;963;42.644;23.336;2023-04-20T09:17:58;93872.34;;;14.07;57.76
1472;BME280;963;42.644;23.336;2023-04-20T09:20:32;93860.69;;;13.97;57.39
1472;BME280;963;42.644;23.336;2023-04-20T09:23:30;93878.41;;;14.07;57.28
1472;BME280;963;42.644;23.336;2023-04-20T09:25:56;93864.84;;;13.98;57.77
1472;BME280;963;42.644;23.336;2023-04-20T09:28:21;93867.13;;;13.96;57.51
1472;BME280;963;42.644;23.336;2023-04-20T09:30:48;93854.22;;;14.09;57.15
1472;BME280;963;42.644;23.336;2023-04-20T09:33:15;93847.41;;;14.15;56.99
1472;BME280;963;42.644;23.336;2023-04-20T09:35:42;93840.59;;;14.14;56.66
1472;BME280;963;42.644;23.336;2023-04-20T09:38:09;93850.44;;;14.06;57.10
1472;BME280;963;42.644;23.336;2023-04-20T09:40:35;93849.28;;;14.15;57.29
1472;BME280;963;42.644;23.336;2023-04-20T09:43:17;93854.09;;;14.30;56.97
1472;BME280;963;42.644;23.336;2023-04-20T09:45:43;93851.00;;;14.46;56.25
1472;BME280;963;42.644;23.336;2023-04-20T09:48:09;93844.91;;;14.56;56.06
1472;BME280;963;42.644;23.336;2023-04-20T09:50:37;93853.13;;;14.73;56.40
1472;BME280;963;42.644;23.336;2023-04-20T09:53:04;93840.16;;;14.89;55.53
1472;BME280;963;42.644;23.336;2023-04-20T09:55:30;93850.72;;;14.92;55.30
1472;BME280;963;42.644;23.336;2023-04-20T09:57:56;93833.22;;;15.02;55.27
1472;BME280;963;42.644;23.336;2023-04-20T10:00:23;93849.69;;;15.24;54.59
1472;BME280;963;42.644;23.336;2023-04-20T10:02:48;93847.28;;;15.37;54.08
1472;BME280;963;42.644;23.336;2023-04-20T10:05:14;93835.16;;;14.98;54.71
1472;BME280;963;42.644;23.336;2023-04-20T10:07:41;93831.59;;;15.15;54.67
1472;BME280;963;42.644;23.336;2023-04-20T10:10:12;93833.44;;;15.18;54.23
1472;BME280;963;42.644;23.336;2023-04-20T10:12:52;93840.06;;;14.40;55.99
1472;BME280;963;42.644;23.336;2023-04-20T10:15:18;93823.91;;;14.83;55.66
1472;BME280;963;42.644;23.336;2023-04-20T10:17:46;93823.81;;;14.97;54.26
1472;BME280;963;42.644;23.336;2023-04-20T10:20:32;93832.78;;;15.07;54.63
1472;BME280;963;42.644;23.336;2023-04-20T10:23:08;93831.47;;;15.29;53.60
1472;BME280;963;42.644;23.336;2023-04-20T10:25:34;93820.03;;;15.36;54.23
1472;BME280;963;42.644;23.336;2023-04-20T10:28:02;93807.06;;;15.45;54.17
1472;BME280;963;42.644;23.336;2023-04-20T10:30:31;93824.25;;;15.71;53.20
1472;BME280;963;42.644;23.336;2023-04-20T10:33:10;93798.38;;;15.79;52.57
1472;BME280;963;42.644;23.336;2023-04-20T10:35:48;93825.53;;;15.90;52.24
1472;BME280;963;42.644;23.336;2023-04-20T10:38:14;93830.78;;;15.93;51.26
1472;BME280;963;42.644;23.336;2023-04-20T10:40:40;93815.56;;;15.98;51.51
1472;BME280;963;42.644;23.336;2023-04-20T10:43:19;93824.03;;;15.89;51.83
1472;BME280;963;42.644;23.336;2023-04-20T10:45:45;93826.91;;;16.02;51.97
1472;BME280;963;42.644;23.336;2023-04-20T10:48:11;93804.44;;;16.10;51.62
1472;BME280;963;42.644;23.336;2023-04-20T10:50:37;93809.44;;;16.31;51.02
1472;BME280;963;42.644;23.336;2023-04-20T10:53:04;93798.25;;;16.47;50.93
1472;BME280;963;42.644;23.336;2023-04-20T10:55:30;93802.63;;;16.57;50.89
1472;BME280;963;42.644;23.336;2023-04-20T10:57:56;93796.47;;;16.64;49.79
1472;BME280;963;42.644;23.336;2023-04-20T11:00:24;93780.31;;;16.27;49.89
1472;BME280;963;42.644;23.336;2023-04-20T11:02:51;93788.72;;;16.49;50.25
1472;BME280;963;42.644;23.336;2023-04-20T11:05:18;93811.53;;;16.74;50.20
1472;BME280;963;42.644;23.336;2023-04-20T11:10:16;93789.97;;;17.15;48.94
1472;BME280;963;42.644;23.336;2023-04-20T11:12:41;93779.50;;;17.28;48.46
1472;BME280;963;42.644;23.336;2023-04-20T11:15:07;93791.59;;;17.52;48.12
1472;BME280;963;42.644;23.336;2023-04-20T11:17:35;93781.53;;;17.40;48.30
1472;BME280;963;42.644;23.336;2023-04-20T11:20:08;93783.47;;;17.59;47.62
1472;BME280;963;42.644;23.336;2023-04-20T11:22:38;93787.09;;;17.49;47.65
1472;BME280;963;42.644;23.336;2023-04-20T11:25:06;93784.47;;;17.65;47.42
1472;BME280;963;42.644;23.336;2023-04-20T11:27:36;93788.25;;;17.48;48.06
1472;BME280;963;42.644;23.336;2023-04-20T11:30:03;93766.84;;;17.55;47.31
1472;BME280;963;42.644;23.336;2023-04-20T11:32:33;93776.31;;;17.76;47.01
1472;BME280;963;42.644;23.336;2023-04-20T11:37:25;93769.69;;;17.64;47.17
1472;BME280;963;42.644;23.336;2023-04-20T11:40:04;93777.41;;;17.59;46.34
1472;BME280;963;42.644;23.336;2023-04-20T11:42:34;93783.59;;;17.52;45.20
1472;BME280;963;42.644;23.336;2023-04-20T11:44:59;93779.97;;;17.42;46.23
1472;BME280;963;42.644;23.336;2023-04-20T11:47:25;93771.66;;;17.40;46.37
1472;BME280;963;42.644;23.336;2023-04-20T11:49:51;93763.00;;;16.93;47.64
1472;BME280;963;42.644;23.336;2023-04-20T11:52:17;93767.84;;;16.98;47.27
1472;BME280;963;42.644;23.336;2023-04-20T11:54:42;93781.94;;;16.95;47.31
1472;BME280;963;42.644;23.336;2023-04-20T11:57:08;93772.22;;;17.08;47.22
1472;BME280;963;42.644;23.336;2023-04-20T11:59:33;93777.66;;;17.01;48.10
1472;BME280;963;42.644;23.336;2023-04-20T12:01:58;93770.72;;;17.07;47.32
1472;BME280;963;42.644;23.336;2023-04-20T12:04:28;93778.34;;;17.05;47.00
1472;BME280;963;42.644;23.336;2023-04-20T12:06:53;93774.06;;;16.41;48.58
1472;BME280;963;42.644;23.336;2023-04-20T12:09:19;93789.91;;;16.72;48.20
1472;BME280;963;42.644;23.336;2023-04-20T12:11:44;93755.38;;;16.72;47.62
1472;BME280;963;42.644;23.336;2023-04-20T12:14:10;93764.94;;;16.42;48.32
1472;BME280;963;42.644;23.336;2023-04-20T12:16:35;93768.41;;;16.63;48.43
1472;BME280;963;42.644;23.336;2023-04-20T12:19:01;93758.28;;;16.81;47.36
1472;BME280;963;42.644;23.336;2023-04-20T12:21:26;93767.16;;;16.94;47.29
1472;BME280;963;42.644;23.336;2023-04-20T12:23:51;93751.91;;;16.98;47.75
1472;BME280;963;42.644;23.336;2023-04-20T12:26:17;93766.47;;;16.90;48.57
1472;BME280;963;42.644;23.336;2023-04-20T12:28:42;93761.97;;;16.87;48.75
1472;BME280;963;42.644;23.336;2023-04-20T12:31:09;93782.47;;;16.86;49.13
1472;BME280;963;42.644;23.336;2023-04-20T12:33:34;93761.50;;;16.69;49.99
1472;BME280;963;42.644;23.336;2023-04-20T12:36:00;93769.97;;;16.60;51.32
1472;BME280;963;42.644;23.336;2023-04-20T12:38:25;93778.75;;;16.30;53.23
1472;BME280;963;42.644;23.336;2023-04-20T12:40:51;93771.41;;;16.14;53.20
1472;BME280;963;42.644;23.336;2023-04-20T12:43:16;93773.91;;;16.25;52.70
1472;BME280;963;42.644;23.336;2023-04-20T12:45:42;93767.44;;;16.26;52.47
1472;BME280;963;42.644;23.336;2023-04-20T12:48:07;93775.84;;;16.21;52.01
1472;BME280;963;42.644;23.336;2023-04-20T12:50:32;93765.25;;;16.21;52.52
1472;BME280;963;42.644;23.336;2023-04-20T12:52:58;93773.25;;;16.17;51.88
1472;BME280;963;42.644;23.336;2023-04-20T12:55:24;93761.66;;;16.31;52.05
1472;BME280;963;42.644;23.336;2023-04-20T12:57:50;93755.72;;;16.50;52.27
1472;BME280;963;42.644;23.336;2023-04-20T13:00:16;93745.34;;;16.83;50.73
1472;BME280;963;42.644;23.336;2023-04-20T13:02:42;93743.78;;;17.29;49.45
1472;BME280;963;42.644;23.336;2023-04-20T13:05:07;93739.75;;;17.60;48.51
1472;BME280;963;42.644;23.336;2023-04-20T13:07:33;93737.66;;;17.71;48.27
1472;BME280;963;42.644;23.336;2023-04-20T13:09:59;93740.88;;;17.99;46.73
1472;BME280;963;42.644;23.336;2023-04-20T13:12:24;93752.34;;;17.96;46.77
1472;BME280;963;42.644;23.336;2023-04-20T13:14:50;93737.06;;;18.00;46.87
1472;BME280;963;42.644;23.336;2023-04-20T13:17:15;93753.72;;;17.64;47.50
1472;BME280;963;42.644;23.336;2023-04-20T13:19:41;93742.41;;;17.60;46.70
1472;BME280;963;42.644;23.336;2023-04-20T13:22:06;93747.25;;;17.26;47.10